createdAt,value
2023-03-05T00:01:27.403Z,11.70
2023-03-05T00:04:29.068Z,12.10
2023-03-05T00:07:31.784Z,10.80
2023-03-05T00:10:33.408Z,11.00
2023-03-05T00:13:35.925Z,10.60
2023-03-05T00:16:37.600Z,11.10
2023-03-05T00:19:39.148Z,11.20
2023-03-05T00:22:40.820Z,10.00
2023-03-05T00:25:42.856Z,9.50
2023-03-05T00:28:44.455Z,8.80
2023-03-05T00:34:47.702Z,7.90
2023-03-05T00:37:53.105Z,7.30
2023-03-05T00:40:54.707Z,6.90
2023-03-05T00:43:56.238Z,7.10
2023-03-05T00:46:57.819Z,7.70
2023-03-05T00:49:59.345Z,7.60
2023-03-05T00:53:00.895Z,7.40
2023-03-05T00:56:02.494Z,7.80
2023-03-05T00:59:04.161Z,7.80
2023-03-05T01:02:06.231Z,8.10
2023-03-05T01:11:12.175Z,8.50
2023-03-05T01:14:14.486Z,10.00
2023-03-05T01:17:16.461Z,9.80
2023-03-05T01:20:19.931Z,9.50
2023-03-05T01:23:21.722Z,8.90
2023-03-05T01:26:23.319Z,9.10
2023-03-05T01:29:27.225Z,9.00
2023-03-05T01:32:28.788Z,9.40
2023-03-05T01:35:30.550Z,9.30
2023-03-05T01:38:32.136Z,8.30
2023-03-05T01:41:34.222Z,8.30
2023-03-05T01:44:35.941Z,8.00
2023-03-05T01:47:38.454Z,7.30
2023-03-05T01:50:40.033Z,7.60
2023-03-05T01:53:41.897Z,6.80
2023-03-05T02:02:49.612Z,6.20
2023-03-05T02:05:51.283Z,6.70
2023-03-05T02:08:52.893Z,6.70
2023-03-05T02:11:54.892Z,6.30
2023-03-05T02:14:56.449Z,6.30
2023-03-05T02:17:58.407Z,5.90
2023-03-05T02:21:03.029Z,6.40
2023-03-05T02:24:05.093Z,5.90
2023-03-05T02:27:07.467Z,5.60
2023-03-05T02:30:09.601Z,6.70
2023-03-05T02:33:14.079Z,6.30
2023-03-05T02:36:16.040Z,5.90
2023-03-05T02:39:17.925Z,5.80
2023-03-05T02:42:19.790Z,5.90
2023-03-05T02:45:21.394Z,5.70
2023-03-05T02:48:23.082Z,5.70
2023-03-05T02:51:24.847Z,5.40
2023-03-05T02:54:26.362Z,5.80
2023-03-05T02:57:28.026Z,5.50
2023-03-05T03:03:31.449Z,5.10
2023-03-05T03:06:33.193Z,5.20
2023-03-05T03:12:41.032Z,5.40
2023-03-05T03:15:42.568Z,5.00
2023-03-05T03:18:44.210Z,4.80
2023-03-05T03:21:45.774Z,5.20
2023-03-05T03:24:47.629Z,5.50
2023-03-05T03:27:49.352Z,4.50
2023-03-05T03:30:50.959Z,4.20
2023-03-05T03:33:52.534Z,4.90
2023-03-05T03:36:54.196Z,5.20
2023-03-05T03:39:56.169Z,4.70
2023-03-05T03:42:57.757Z,4.30
2023-03-05T03:45:59.651Z,4.80
2023-03-05T03:52:03.374Z,4.50
2023-03-05T03:55:05.311Z,4.40
2023-03-05T03:58:07.384Z,4.40
2023-03-05T04:01:08.917Z,4.20
2023-03-05T04:04:12.461Z,3.50
2023-03-05T04:07:14.339Z,3.80
2023-03-05T04:10:15.968Z,4.00
2023-03-05T04:13:17.659Z,3.70
2023-03-05T04:16:19.362Z,3.80
2023-03-05T04:22:23.281Z,3.50
2023-03-05T04:25:24.914Z,3.70
2023-03-05T04:28:26.559Z,4.30
2023-03-05T04:31:28.269Z,3.90
2023-03-05T04:34:29.828Z,3.60
2023-03-05T04:37:31.508Z,3.70
2023-03-05T04:40:33.442Z,3.70
2023-03-05T04:43:35.101Z,3.80
2023-03-05T04:46:36.639Z,4.20
2023-03-05T04:49:38.200Z,4.70
2023-03-05T04:52:44.298Z,4.50
2023-03-05T04:55:45.890Z,4.70
2023-03-05T04:58:47.541Z,5.10
2023-03-05T05:01:49.160Z,4.40
2023-03-05T05:04:54.433Z,4.60
2023-03-05T05:07:57.549Z,6.00
2023-03-05T05:11:05.112Z,6.90
2023-03-05T05:14:06.933Z,6.70
2023-03-05T05:17:09.212Z,7.00
2023-03-05T05:20:12.507Z,6.60
2023-03-05T05:23:14.162Z,5.20
2023-03-05T05:26:15.717Z,5.20
2023-03-05T05:29:17.324Z,5.80
2023-03-05T05:32:20.731Z,5.30
2023-03-05T05:35:22.643Z,5.40
2023-03-05T05:38:24.190Z,6.00
2023-03-05T05:41:25.781Z,7.50
2023-03-05T05:44:27.810Z,7.90
2023-03-05T05:47:29.534Z,6.10
2023-03-05T05:50:31.313Z,5.80
2023-03-05T05:56:34.426Z,6.00
2023-03-05T05:59:35.991Z,5.60
2023-03-05T06:02:39.416Z,5.50
2023-03-05T06:05:42.418Z,5.80
2023-03-05T06:08:44.114Z,6.80
2023-03-05T06:11:45.716Z,6.10
2023-03-05T06:14:47.338Z,6.70
2023-03-05T06:17:48.970Z,6.90
2023-03-05T06:21:05.798Z,7.80
2023-03-05T06:24:07.586Z,6.60
2023-03-05T06:30:11.770Z,8.70
2023-03-05T06:33:13.813Z,9.00
2023-03-05T06:36:17.720Z,9.30
2023-03-05T06:39:19.535Z,10.30
2023-03-05T06:45:22.612Z,10.80
2023-03-05T06:48:24.268Z,12.80
2023-03-05T06:51:34.262Z,11.90
2023-03-05T06:54:35.989Z,11.70
2023-03-05T06:57:37.652Z,12.10
2023-03-05T07:00:39.214Z,12.20
2023-03-05T07:03:41.595Z,13.40
2023-03-05T07:06:43.798Z,12.70
2023-03-05T07:09:45.490Z,13.50
2023-03-05T07:12:47.222Z,13.60
2023-03-05T07:15:49.135Z,14.60
2023-03-05T07:18:50.946Z,13.90
2023-03-05T07:24:54.069Z,14.40
2023-03-05T07:27:56.523Z,14.70
2023-03-05T07:31:00.228Z,15.50
2023-03-05T07:34:02.757Z,16.60
2023-03-05T07:37:04.467Z,17.70
2023-03-05T07:40:06.858Z,17.90
2023-03-05T07:43:08.876Z,17.60
2023-03-05T07:46:11.923Z,19.00
2023-03-05T07:49:13.643Z,21.30
2023-03-05T07:52:15.453Z,21.60
2023-03-05T07:55:17.296Z,22.00
2023-03-05T08:01:20.498Z,19.80
2023-03-05T08:04:22.154Z,20.60
2023-03-05T08:10:25.681Z,20.10
2023-03-05T08:13:27.285Z,20.60
2023-03-05T08:16:28.922Z,20.30
2023-03-05T08:19:30.570Z,18.00
2023-03-05T08:22:35.390Z,17.10
2023-03-05T08:25:36.931Z,18.30
2023-03-05T08:28:38.535Z,17.70
2023-03-05T08:31:40.126Z,17.70
2023-03-05T08:34:41.820Z,16.20
2023-03-05T08:37:43.393Z,17.60
2023-03-05T08:40:44.937Z,17.80
2023-03-05T08:43:46.489Z,16.00
2023-03-05T08:46:48.149Z,13.60
2023-03-05T08:52:51.458Z,14.10
2023-03-05T08:55:59.157Z,13.30
2023-03-05T08:59:01.741Z,12.60
2023-03-05T09:05:04.061Z,12.10
2023-03-05T09:08:05.759Z,13.60
2023-03-05T09:14:10.366Z,14.00
2023-03-05T09:17:11.949Z,14.30
2023-03-05T09:20:13.998Z,14.80
2023-03-05T09:23:15.573Z,15.40
2023-03-05T09:26:17.749Z,14.50
2023-03-05T09:29:19.417Z,12.60
2023-03-05T09:32:21.135Z,13.30
2023-03-05T09:38:24.618Z,13.90
2023-03-05T09:41:54.181Z,14.50
2023-03-05T09:45:04.103Z,13.90
2023-03-05T09:48:24.463Z,13.40
2023-03-05T09:51:30.009Z,12.50
2023-03-05T09:54:41.328Z,12.40
2023-03-05T09:57:45.925Z,12.40
2023-03-05T10:00:50.642Z,12.00
2023-03-05T10:03:56.209Z,12.30
2023-03-05T10:06:57.750Z,12.10
2023-03-05T10:10:02.991Z,12.40
2023-03-05T10:13:29.161Z,12.60
2023-03-05T10:16:58.337Z,13.00
2023-03-05T10:20:21.805Z,12.60
2023-03-05T10:23:30.826Z,13.40
2023-03-05T10:26:44.409Z,15.20
2023-03-05T10:30:30.930Z,13.00
2023-03-05T10:33:51.387Z,14.00
2023-03-05T10:37:02.120Z,16.20
2023-03-05T10:40:11.101Z,17.50
2023-03-05T10:43:31.196Z,16.70
2023-03-05T10:46:36.202Z,18.40
2023-03-05T10:49:42.279Z,18.00
2023-03-05T10:52:44.341Z,18.00
2023-03-05T10:55:45.868Z,19.50
2023-03-05T10:58:47.440Z,17.70
2023-03-05T11:05:05.188Z,16.00
2023-03-05T11:08:35.295Z,16.40
2023-03-05T11:11:36.934Z,17.40
2023-03-05T11:14:42.132Z,15.00
2023-03-05T11:17:48.451Z,15.00
2023-03-05T11:20:50.718Z,16.00
2023-03-05T11:24:14.013Z,12.60
2023-03-05T11:27:30.804Z,14.80
2023-03-05T11:30:35.376Z,14.50
2023-03-05T11:33:37.480Z,14.80
2023-03-05T11:36:41.133Z,15.60
2023-03-05T11:39:45.373Z,15.40
2023-03-05T11:42:54.532Z,16.70
2023-03-05T11:46:03.004Z,17.70
2023-03-05T11:49:05.697Z,17.70
2023-03-05T11:52:27.209Z,21.00
2023-03-05T11:55:38.215Z,20.20
2023-03-05T11:58:46.755Z,19.70
2023-03-05T12:01:51.899Z,19.60
2023-03-05T12:04:53.668Z,19.60
2023-03-05T12:08:01.225Z,19.00
2023-03-05T12:11:18.658Z,20.00
2023-03-05T12:14:26.416Z,21.50
2023-03-05T12:17:32.118Z,24.40
2023-03-05T12:21:04.804Z,23.60
2023-03-05T12:24:27.533Z,25.00
2023-03-05T12:27:36.291Z,23.30
2023-03-05T12:30:37.812Z,19.40
2023-03-05T12:33:41.129Z,19.60
2023-03-05T12:36:42.666Z,18.60
2023-03-05T12:39:44.308Z,18.70
2023-03-05T12:43:28.548Z,16.60
2023-03-05T12:46:30.794Z,16.50
2023-03-05T12:49:39.185Z,19.30
2023-03-05T12:52:42.458Z,19.50
2023-03-05T12:55:44.137Z,19.10
2023-03-05T12:58:49.894Z,20.40
2023-03-05T13:01:58.835Z,20.20
2023-03-05T13:05:04.833Z,19.40
2023-03-05T13:08:22.253Z,18.60
2023-03-05T13:11:23.856Z,17.20
2023-03-05T13:14:31.142Z,16.80
2023-03-05T13:17:37.698Z,15.00
2023-03-05T13:20:41.118Z,16.00
2023-03-05T13:23:48.976Z,17.80
2023-03-05T13:26:50.524Z,15.90
2023-03-05T13:29:52.602Z,14.60
2023-03-05T13:32:59.436Z,15.90
2023-03-05T13:36:01.791Z,15.70
2023-03-05T13:39:03.768Z,14.60
2023-03-05T13:42:15.829Z,14.80
2023-03-05T13:45:29.780Z,14.60
2023-03-05T13:48:31.462Z,14.20
2023-03-05T13:54:45.645Z,13.80
2023-03-05T13:57:50.273Z,13.50
2023-03-05T14:01:03.240Z,13.20
2023-03-05T14:04:19.265Z,13.10
2023-03-05T14:07:38.989Z,14.40
2023-03-05T14:10:40.795Z,15.10
2023-03-05T14:13:43.387Z,16.10
2023-03-05T14:16:44.958Z,17.10
2023-03-05T14:19:46.582Z,16.40
2023-03-05T14:22:49.520Z,16.70
2023-03-05T14:25:51.285Z,16.10
2023-03-05T14:28:57.340Z,15.90
2023-03-05T14:32:07.555Z,14.90
2023-03-05T14:35:17.989Z,15.40
2023-03-05T14:38:22.598Z,15.20
2023-03-05T14:41:41.462Z,14.30
2023-03-05T14:44:43.054Z,14.50
2023-03-05T14:47:45.282Z,14.90
2023-03-05T14:50:54.094Z,14.20
2023-03-05T14:53:56.876Z,15.50
2023-03-05T14:56:58.495Z,14.40
2023-03-05T15:00:00.061Z,14.50
2023-03-05T15:03:01.725Z,13.50
2023-03-05T15:06:03.577Z,13.20
2023-03-05T15:09:06.206Z,13.00
2023-03-05T15:12:08.590Z,13.30
2023-03-05T15:15:13.955Z,14.10
2023-03-05T15:18:18.419Z,14.30
2023-03-05T15:21:20.091Z,13.50
2023-03-05T15:27:23.656Z,11.90
2023-03-05T15:30:29.500Z,6.80
2023-03-05T15:33:34.631Z,9.70
2023-03-05T15:36:36.225Z,7.50
2023-03-05T15:39:37.834Z,8.90
2023-03-05T15:42:39.917Z,7.90
2023-03-05T15:45:41.564Z,7.40
2023-03-05T15:48:44.204Z,6.60
2023-03-05T15:51:45.886Z,7.00
2023-03-05T15:54:47.507Z,7.90
2023-03-05T15:57:50.673Z,7.80
2023-03-05T16:00:52.510Z,9.30
2023-03-05T16:03:54.140Z,8.70
2023-03-05T16:06:56.938Z,8.40
2023-03-05T16:09:58.542Z,7.90
2023-03-05T16:13:08.213Z,8.10
2023-03-05T16:16:09.990Z,8.20
2023-03-05T16:19:13.903Z,8.50
2023-03-05T16:22:15.969Z,8.50
2023-03-05T16:25:17.823Z,7.90
2023-03-05T16:28:19.461Z,7.90
2023-03-05T16:31:21.050Z,7.30
2023-03-05T16:34:22.728Z,7.30
2023-03-05T16:37:25.509Z,7.30
2023-03-05T16:40:44.272Z,6.90
2023-03-05T16:43:50.254Z,8.50
2023-03-05T16:46:52.055Z,8.30
2023-03-05T16:49:53.669Z,11.10
2023-03-05T16:52:55.422Z,13.70
2023-03-05T16:55:57.003Z,10.50
2023-03-05T16:58:58.685Z,11.40
2023-03-05T17:02:00.447Z,11.60
2023-03-05T17:08:04.796Z,9.90
2023-03-05T17:14:08.147Z,8.70
2023-03-05T17:17:09.942Z,8.20
2023-03-05T17:23:13.536Z,9.10
2023-03-05T17:26:18.537Z,7.80
2023-03-05T17:29:20.131Z,7.70
2023-03-05T17:32:22.018Z,7.50
2023-03-05T17:35:23.836Z,7.70
2023-03-05T17:41:27.335Z,7.20
2023-03-05T17:47:30.628Z,7.00
2023-03-05T17:50:32.177Z,6.40
2023-03-05T17:53:34.604Z,6.70
2023-03-05T17:56:36.164Z,6.90
2023-03-05T18:02:39.894Z,7.30
2023-03-05T18:05:41.496Z,8.40
2023-03-05T18:08:43.217Z,8.70
2023-03-05T18:11:44.803Z,11.50
2023-03-05T18:14:46.429Z,12.40
2023-03-05T18:17:48.153Z,14.20
2023-03-05T18:23:51.924Z,12.40
2023-03-05T18:29:55.290Z,15.30
2023-03-05T18:32:57.875Z,15.50
2023-03-05T18:35:59.585Z,16.90
2023-03-05T18:42:02.880Z,14.10
2023-03-05T18:45:06.352Z,14.10
2023-03-05T18:48:07.987Z,14.80
2023-03-05T18:51:14.673Z,15.80
2023-03-05T18:54:16.366Z,15.00
2023-03-05T19:00:22.653Z,16.40
2023-03-05T19:03:24.311Z,18.90
2023-03-05T19:06:26.023Z,22.60
2023-03-05T19:09:27.718Z,19.00
2023-03-05T19:18:34.239Z,19.10
2023-03-05T19:21:36.456Z,22.00
2023-03-05T19:24:38.196Z,19.60
2023-03-05T19:27:40.153Z,18.80
2023-03-05T19:30:41.848Z,18.30
2023-03-05T19:36:45.377Z,17.60
2023-03-05T19:39:47.030Z,20.70
2023-03-05T19:42:48.732Z,20.70
2023-03-05T19:45:50.317Z,20.10
2023-03-05T19:48:52.020Z,20.40
2023-03-05T19:51:53.614Z,22.10
2023-03-05T19:54:55.132Z,20.70
2023-03-05T19:57:56.782Z,21.60
2023-03-05T20:01:11.393Z,23.30
2023-03-05T20:04:16.288Z,27.50
2023-03-05T20:07:18.178Z,30.10
2023-03-05T20:10:19.942Z,31.90
2023-03-05T20:16:28.971Z,28.40
2023-03-05T20:19:30.570Z,27.30
2023-03-05T20:22:32.533Z,27.90
2023-03-05T20:25:34.290Z,28.00
2023-03-05T20:28:35.914Z,27.70
2023-03-05T20:31:38.207Z,28.00
2023-03-05T20:34:39.796Z,26.20
2023-03-05T20:37:41.891Z,27.80
2023-03-05T20:40:43.478Z,27.10
2023-03-05T20:43:47.840Z,26.80
2023-03-05T20:46:49.500Z,26.40
2023-03-05T20:52:55.727Z,23.90
2023-03-05T20:55:57.252Z,24.10
2023-03-05T20:58:59.949Z,22.70
2023-03-05T21:02:01.611Z,24.10
2023-03-05T21:05:03.319Z,25.00
2023-03-05T21:08:05.257Z,26.50
2023-03-05T21:11:08.568Z,25.50
2023-03-05T21:14:10.192Z,26.60
2023-03-05T21:17:12.310Z,27.50
2023-03-05T21:20:17.788Z,28.60
2023-03-05T21:23:19.369Z,25.90
2023-03-05T21:26:21.334Z,27.60
2023-03-05T21:29:22.993Z,32.70
2023-03-05T21:35:26.873Z,24.80
2023-03-05T21:38:28.656Z,24.20
2023-03-05T21:44:31.773Z,20.80
2023-03-05T21:47:33.927Z,21.00
2023-03-05T21:50:39.399Z,18.90
2023-03-05T21:53:40.937Z,19.90
2023-03-05T21:56:42.596Z,19.70
2023-03-05T21:59:44.206Z,20.10
2023-03-05T22:02:48.892Z,19.50
2023-03-05T22:05:50.484Z,18.00
2023-03-05T22:08:52.026Z,19.00
2023-03-05T22:11:53.725Z,18.80
2023-03-05T22:14:55.732Z,20.90
2023-03-05T22:17:57.318Z,18.70
2023-03-05T22:20:59.562Z,19.60
2023-03-05T22:24:01.168Z,20.10
2023-03-05T22:27:02.777Z,18.40
2023-03-05T22:30:04.773Z,19.70
2023-03-05T22:33:06.293Z,20.80
2023-03-05T22:36:10.065Z,21.60
2023-03-05T22:39:11.707Z,24.10
2023-03-05T22:42:13.343Z,23.80
2023-03-05T22:45:16.432Z,24.90
2023-03-05T22:48:18.062Z,24.90
2023-03-05T22:51:20.195Z,24.80
2023-03-05T22:54:21.886Z,24.10
2023-03-05T22:57:23.694Z,25.30
2023-03-05T23:03:27.017Z,25.90
2023-03-05T23:09:30.633Z,23.90
2023-03-05T23:12:35.455Z,26.20
2023-03-05T23:15:38.281Z,28.60
2023-03-05T23:18:39.887Z,30.70
2023-03-05T23:21:41.429Z,29.10
2023-03-05T23:24:43.106Z,25.90
2023-03-05T23:27:44.768Z,26.80
2023-03-05T23:30:46.461Z,27.80
2023-03-05T23:33:48.168Z,26.70
2023-03-05T23:36:49.778Z,25.00
2023-03-05T23:39:51.368Z,24.10
2023-03-05T23:42:53.438Z,23.10
2023-03-05T23:45:56.118Z,24.30
2023-03-05T23:48:57.732Z,25.20
2023-03-05T23:51:59.284Z,25.30
2023-03-05T23:55:00.941Z,25.20
2023-03-05T23:58:03.408Z,25.40
